Terminal Aerodrome Forecast
Issued by NWS

Home | Current Version | Previous Version | Text Only | Print | Product List | Glossary On
Versions: 1 2 3 4 5 6 7 8 9 10 11 12 13 14 15 16 17 18 19
000
FTUS45 KCYS 291744
TAFAIA
TAF
KAIA 291744Z 2918/3018 16008KT P6SM BKN100
     FM300000 15006KT P6SM VCTS BKN100CB
     FM300700 16005KT 1SM BR SCT001 BKN100
     FM301200 20009KT P6SM BKN100=

USA.gov is the U.S. government's official web portal to all federal, state and local government web resources and services.